Time;durP1;ratioP1;P1;durP2;ratioP2;P2;SDS_P1;SDS_P2;PMS_P1;PMS_P2;Temp;Humidity;BMP_temperature;BMP_pressure;BME280_temperature;BME280_humidity;BME280_pressure;Samples;Min_cycle;Max_cycle;Signal;HPM_P1;HPM_P2
2022/09/19 18:41:15;;;;;;;;;;;10.60;75.00;;;;;;5067903;28;20333;-75
2022/09/19 18:43:43;;;;;;;;;;;10.60;77.80;;;;;;5070305;28;19908;-74
2022/09/19 18:46:14;;;;;;;10.13;2.78;;;10.60;78.20;;;;;;5069595;28;19908;-75
2022/09/19 18:48:42;;;;;;;9.18;2.25;;;10.60;78.40;;;;;;5069916;28;20109;-74
2022/09/19 18:51:11;;;;;;;4.60;2.08;;;10.70;76.80;;;;;;5070010;28;20025;-75
2022/09/19 18:53:38;;;;;;;5.97;1.92;;;10.80;76.40;;;;;;5070140;28;20024;-75
2022/09/19 18:56:05;;;;;;;6.43;2.83;;;10.80;75.90;;;;;;5070300;28;20078;-75
2022/09/19 18:58:30;;;;;;;7.68;2.67;;;10.70;75.20;;;;;;5070122;28;20021;-74
2022/09/19 19:01:04;;;;;;;7.05;2.67;;;10.70;75.60;;;;;;5069132;28;20393;-73
2022/09/19 19:03:30;;;;;;;4.95;2.78;;;10.60;75.30;;;;;;5070001;28;20035;-74
2022/09/19 19:05:59;;;;;;;7.00;2.50;;;10.50;75.70;;;;;;5069058;28;20028;-75
2022/09/19 19:08:26;;;;;;;6.00;2.60;;;10.40;75.90;;;;;;5069617;28;20043;-74
2022/09/19 19:10:51;;;;;;;7.47;2.67;;;10.30;76.40;;;;;;5069857;28;20083;-74
2022/09/19 19:13:17;;;;;;;7.45;3.00;;;10.20;76.40;;;;;;5069683;28;20021;-74
2022/09/19 19:15:43;;;;;;;9.55;3.03;;;10.30;76.70;;;;;;5069776;28;20112;-74
2022/09/19 19:18:08;;;;;;;12.15;3.42;;;10.30;76.70;;;;;;5069221;28;20047;-74
2022/09/19 19:20:34;;;;;;;9.02;3.50;;;10.40;75.60;;;;;;5069554;28;20075;-74
2022/09/19 19:23:00;;;;;;;6.90;3.50;;;10.30;75.60;;;;;;5080624;28;20024;-75
2022/09/19 19:25:26;;;;;;;6.55;3.25;;;10.40;75.70;;;;;;5081923;28;20021;-74
2022/09/19 19:27:53;;;;;;;9.52;3.60;;;10.50;75.70;;;;;;5069139;28;20373;-72
2022/09/19 19:30:19;;;;;;;8.10;3.85;;;10.50;74.60;;;;;;5068824;28;20036;-81
2022/09/19 19:32:45;;;;;;;10.23;4.15;;;10.50;74.10;;;;;;5067855;28;20027;-81
2022/09/19 19:35:10;;;;;;;9.90;4.35;;;10.30;74.60;;;;;;5069554;28;20105;-77
2022/09/19 19:37:36;;;;;;;7.38;4.07;;;10.00;75.40;;;;;;5069084;28;20025;-80
2022/09/19 19:40:05;;;;;;;11.70;5.03;;;9.70;76.60;;;;;;5069295;28;20106;-80
2022/09/19 19:42:31;;;;;;;9.65;4.78;;;9.60;77.60;;;;;;5068912;28;20071;-79
2022/09/19 19:44:57;;;;;;;9.93;4.40;;;9.30;78.40;;;;;;5069009;28;20480;-80
2022/09/19 19:47:22;;;;;;;13.98;5.50;;;9.30;79.00;;;;;;5068935;28;20028;-77
2022/09/19 19:49:49;;;;;;;12.63;5.00;;;9.20;79.20;;;;;;5068912;28;20117;-78
2022/09/19 19:52:15;;;;;;;13.70;4.10;;;9.20;79.60;;;;;;5056371;28;20040;-78
2022/09/19 19:54:41;;;;;;;7.88;3.50;;;9.10;79.90;;;;;;5055419;28;20033;-78
2022/09/19 19:57:06;;;;;;;6.40;3.65;;;9.10;80.00;;;;;;5055267;28;20384;-80
2022/09/19 19:59:32;;;;;;;10.70;3.70;;;9.10;79.90;;;;;;5054832;28;20338;-78
2022/09/19 20:01:57;;;;;;;7.00;3.72;;;9.00;80.00;;;;;;5055042;28;20072;-78
2022/09/19 20:04:23;;;;;;;7.32;3.90;;;9.00;80.30;;;;;;5053397;28;20021;-79
2022/09/19 20:06:49;;;;;;;7.88;3.90;;;9.00;80.50;;;;;;5054975;28;20151;-78
2022/09/19 20:09:15;;;;;;;11.00;4.40;;;9.00;80.40;;;;;;5054981;28;20033;-79
2022/09/19 20:11:42;;;;;;;9.35;4.53;;;9.10;80.50;;;;;;5055571;28;20033;-78
2022/09/19 20:14:14;;;;;;;8.23;3.85;;;9.00;80.20;;;;;;5055431;28;20507;-77
2022/09/19 20:16:41;;;;;;;9.70;3.72;;;9.00;79.90;;;;;;5055360;28;20017;-79
2022/09/19 20:19:09;;;;;;;10.30;3.60;;;8.90;79.90;;;;;;5055060;28;20025;-80
2022/09/19 20:21:39;;;;;;;12.02;3.47;;;8.80;80.40;;;;;;5055517;28;20025;-79
2022/09/19 20:24:05;;;;;;;11.38;3.47;;;8.70;81.10;;;;;;5055047;28;20489;-80
2022/09/19 20:26:39;;;;;;;9.10;4.10;;;8.60;81.30;;;;;;5054773;28;20032;-80
2022/09/19 20:29:05;;;;;;;8.20;3.35;;;8.60;81.50;;;;;;5054393;28;20025;-79
2022/09/19 20:31:34;;;;;;;8.43;3.70;;;8.50;81.80;;;;;;5053984;28;20516;-79
2022/09/19 20:34:03;;;;;;;10.30;4.25;;;8.50;81.80;;;;;;5053733;28;20075;-80
2022/09/19 20:36:30;;;;;;;8.60;4.07;;;8.50;81.80;;;;;;5054725;28;20515;-80
2022/09/19 20:38:56;;;;;;;8.73;4.13;;;8.40;82.10;;;;;;5054388;28;20055;-80
2022/09/19 20:41:26;;;;;;;8.45;3.45;;;8.50;82.40;;;;;;5054938;28;20434;-79
2022/09/19 20:43:53;;;;;;;8.60;2.90;;;8.40;82.20;;;;;;5054643;28;20021;-80
2022/09/19 20:46:19;;;;;;;10.32;2.90;;;8.50;82.10;;;;;;5054686;28;20028;-79
2022/09/19 20:48:45;;;;;;;6.40;2.45;;;8.40;82.20;;;;;;5054944;28;20389;-80
2022/09/19 20:51:22;;;;;;;13.15;2.90;;;8.40;82.40;;;;;;5053917;28;20029;-80
2022/09/19 20:53:50;;;;;;;6.45;2.80;;;8.30;82.40;;;;;;5055179;28;20024;-78
2022/09/19 20:56:19;;;;;;;8.30;3.13;;;8.30;82.30;;;;;;5062010;28;20033;-77
2022/09/19 20:58:45;;;;;;;8.15;3.17;;;8.20;82.20;;;;;;5055751;28;20021;-76
2022/09/19 21:01:14;;;;;;;7.93;3.20;;;8.20;82.10;;;;;;5059164;28;20032;-81
2022/09/19 21:03:40;;;;;;;7.53;3.55;;;8.20;82.10;;;;;;5053590;28;20513;-79
2022/09/19 21:06:08;;;;;;;10.48;4.00;;;8.10;82.40;;;;;;5054332;28;20021;-81
2022/09/19 21:08:37;;;;;;;6.90;3.55;;;8.10;82.70;;;;;;5054374;28;20025;-79
2022/09/19 21:11:06;;;;;;;10.82;4.10;;;8.00;83.10;;;;;;5052928;28;20466;-78
2022/09/19 21:13:34;;;;;;;6.07;3.38;;;7.90;83.40;;;;;;5054154;28;20663;-78
2022/09/19 21:16:27;;;;;;;10.73;3.80;;;8.00;83.50;;;;;;5053949;28;20056;-78
2022/09/19 21:18:54;;;;;;;9.57;4.20;;;8.00;83.20;;;;;;5052464;28;20029;-79
2022/09/19 21:21:22;;;;;;;10.15;3.97;;;8.00;83.00;;;;;;5053910;28;20025;-78
2022/09/19 21:23:50;;;;;;;13.38;4.72;;;8.00;82.90;;;;;;5053931;28;20017;-78
2022/09/19 21:26:21;;;;;;;11.57;4.70;;;7.90;83.30;;;;;;5053853;28;20029;-78
2022/09/19 21:28:49;;;;;;;7.70;4.63;;;7.80;83.40;;;;;;5053873;28;20032;-78
2022/09/19 21:31:17;;;;;;;8.77;4.40;;;7.80;83.60;;;;;;5053844;28;20028;-78
2022/09/19 21:33:43;;;;;;;13.30;3.95;;;7.70;83.80;;;;;;5053650;28;20024;-78
2022/09/19 21:36:09;;;;;;;10.55;4.78;;;7.70;84.00;;;;;;5053692;28;20017;-78
2022/09/19 21:38:35;;;;;;;7.57;3.97;;;7.70;84.40;;;;;;5053636;28;20021;-78
2022/09/19 21:41:05;;;;;;;10.77;4.35;;;7.60;84.60;;;;;;5053231;28;20094;-78
2022/09/19 21:43:33;;;;;;;11.73;4.10;;;7.60;84.40;;;;;;5053617;28;20473;-78
2022/09/19 21:46:16;;;;;;;11.40;4.53;;;7.70;84.20;;;;;;5053576;28;20434;-79
2022/09/19 21:48:44;;;;;;;10.10;3.72;;;7.70;83.80;;;;;;5053592;28;20087;-80
2022/09/19 21:51:13;;;;;;;13.32;4.00;;;7.60;83.90;;;;;;5053352;28;20033;-78
2022/09/19 21:53:39;;;;;;;9.63;4.30;;;7.60;84.20;;;;;;5053344;28;20500;-79
2022/09/19 21:56:05;;;;;;;8.90;3.45;;;7.50;84.30;;;;;;5053175;28;20029;-79
2022/09/19 21:58:31;;;;;;;10.13;3.00;;;7.50;84.30;;;;;;5053845;28;20028;-80
2022/09/19 22:00:57;;;;;;;15.77;4.07;;;7.40;84.60;;;;;;5053349;28;20025;-80
2022/09/19 22:03:25;;;;;;;10.52;3.67;;;7.50;84.80;;;;;;5053276;28;20579;-78
2022/09/19 22:05:53;;;;;;;9.70;3.03;;;7.40;84.70;;;;;;5053213;28;20032;-79
2022/09/19 22:08:19;;;;;;;14.07;3.80;;;7.50;84.70;;;;;;5052892;28;20492;-79
2022/09/19 22:10:45;;;;;;;10.45;3.65;;;7.40;84.40;;;;;;5052853;28;20040;-79
2022/09/19 22:13:10;;;;;;;9.10;3.30;;;7.40;84.70;;;;;;5051876;28;20017;-78
2022/09/19 22:15:36;;;;;;;11.80;3.53;;;7.30;84.70;;;;;;5052825;28;20024;-79
2022/09/19 22:18:01;;;;;;;10.40;3.40;;;7.30;84.80;;;;;;5052851;28;20028;-78
2022/09/19 22:20:27;;;;;;;7.45;3.03;;;7.30;85.00;;;;;;5051545;28;20027;-79
2022/09/19 22:22:52;;;;;;;8.15;3.15;;;7.30;85.00;;;;;;5053086;28;20106;-78
2022/09/19 22:25:18;;;;;;;10.82;3.63;;;7.30;85.10;;;;;;5051759;28;20086;-78
2022/09/19 22:27:44;;;;;;;11.13;2.95;;;7.30;85.00;;;;;;5052914;28;20017;-78
2022/09/19 22:30:10;;;;;;;8.75;3.25;;;7.30;85.00;;;;;;5052999;28;20128;-78
2022/09/19 22:32:36;;;;;;;10.55;3.25;;;7.30;84.60;;;;;;5053008;28;20025;-78
2022/09/19 22:35:02;;;;;;;14.57;3.90;;;7.30;84.70;;;;;;5052857;28;20158;-78
2022/09/19 22:37:28;;;;;;;9.25;3.03;;;7.30;84.90;;;;;;5052660;28;20044;-78
2022/09/19 22:39:53;;;;;;;8.23;3.35;;;7.30;84.70;;;;;;5052753;28;20498;-79
2022/09/19 22:42:19;;;;;;;8.48;3.50;;;7.30;84.50;;;;;;5053194;28;20036;-80
2022/09/19 22:44:45;;;;;;;7.38;3.47;;;7.20;84.50;;;;;;5052815;28;20096;-79
2022/09/19 22:47:11;;;;;;;8.73;3.25;;;7.30;84.50;;;;;;5052953;28;20029;-79
2022/09/19 22:49:36;;;;;;;7.90;3.35;;;7.20;84.50;;;;;;5052705;28;20044;-79
2022/09/19 22:52:06;;;;;;;13.35;3.53;;;7.10;84.50;;;;;;5052697;28;20064;-78
2022/09/19 22:54:32;;;;;;;7.40;2.63;;;7.10;84.60;;;;;;5052724;28;20108;-78
2022/09/19 22:56:58;;;;;;;8.15;2.95;;;7.10;84.60;;;;;;5052587;28;20100;-78
2022/09/19 22:59:23;;;;;;;10.75;2.72;;;7.10;84.60;;;;;;5052593;28;20021;-78
2022/09/19 23:01:51;;;;;;;9.95;2.50;;;7.10;84.60;;;;;;5052655;28;20384;-78
2022/09/19 23:04:17;;;;;;;10.45;3.05;;;7.00;85.20;;;;;;5050903;28;20021;-78
2022/09/19 23:06:43;;;;;;;18.88;3.80;;;6.90;85.50;;;;;;5052550;28;20040;-78
2022/09/19 23:09:14;;;;;;;10.05;2.90;;;6.90;85.30;;;;;;5052474;28;20024;-79
2022/09/19 23:11:41;;;;;;;16.08;2.95;;;6.90;85.30;;;;;;5052553;28;20501;-78
2022/09/19 23:14:12;;;;;;;8.43;2.83;;;7.00;85.10;;;;;;5052085;28;20067;-78
2022/09/19 23:16:39;;;;;;;10.07;2.78;;;6.90;85.00;;;;;;5052577;28;20025;-79
2022/09/19 23:19:19;;;;;;;5.30;2.22;;;6.90;85.30;;;;;;5052426;28;20025;-78
2022/09/19 23:21:50;;;;;;;7.60;2.45;;;6.90;85.70;;;;;;5052423;28;20060;-78
2022/09/19 23:24:17;;;;;;;7.30;2.55;;;6.80;85.80;;;;;;5052339;28;20033;-78
2022/09/19 23:26:43;;;;;;;6.68;2.47;;;6.80;86.00;;;;;;5053965;28;20378;-78
2022/09/19 23:29:09;;;;;;;9.20;2.65;;;6.80;86.00;;;;;;5055998;28;20028;-80
2022/09/19 23:31:35;;;;;;;8.93;2.88;;;6.90;85.80;;;;;;5055943;28;20024;-78
2022/09/19 23:34:02;;;;;;;8.45;2.70;;;6.90;85.60;;;;;;5055974;28;20461;-78
2022/09/19 23:36:28;;;;;;;8.48;2.88;;;6.90;85.40;;;;;;5056040;28;20029;-79
2022/09/19 23:38:56;;;;;;;7.72;2.80;;;7.00;84.90;;;;;;5055906;28;20025;-78
2022/09/19 23:41:23;;;;;;;9.57;2.78;;;7.00;85.00;;;;;;5055876;28;20020;-78
2022/09/19 23:43:50;;;;;;;6.65;2.67;;;6.90;85.00;;;;;;5054830;28;20053;-77
2022/09/19 23:46:16;;;;;;;9.32;3.25;;;6.90;85.20;;;;;;5054767;28;20491;-78
2022/09/19 23:48:41;;;;;;;9.40;2.28;;;6.90;85.20;;;;;;5055878;28;20104;-79
2022/09/19 23:51:09;;;;;;;8.88;2.75;;;6.90;85.50;;;;;;5055536;28;20037;-78
2022/09/19 23:53:40;;;;;;;5.93;2.60;;;6.90;85.50;;;;;;5055450;28;20032;-79
2022/09/19 23:56:07;;;;;;;6.78;2.42;;;6.90;86.20;;;;;;5055746;28;20120;-80
2022/09/19 23:58:33;;;;;;;6.35;2.78;;;6.80;85.30;;;;;;5055344;28;20147;-79
